Flight Track Log - Related Links

Times and Time Zones

All times are in EDT time to prevent confusion due to time zone crossing. See the N830QS flight status page for this flight to view local times or setup timezone preferences in your user account.


Time Position Orientation Groundspeed Altitude Reporting Facility
EDT Latitude Longitude Course Direction KTS MPH feet Rate Location/Type
Sun 06:41:18 PM 37.7139 -122.4531 251° West 286 329 5,900  Level Oakland Center
Sun 06:42:20 PM 37.6358 -122.4603 184° South 285 328 8,600 2,710 Climbing Oakland Center
Sun 06:43:22 PM 37.5550 -122.4603 180° South 288 331 11,500 2,878 Climbing Oakland Center
Sun 06:44:23 PM 37.4631 -122.4233 162° South 297 342 14,500 2,585 Climbing Oakland Center
Sun 06:45:00 PM 37.3389 -122.2133 136° Southeast  Level FlightAware Approximate
Sun 06:45:25 PM 37.4003 -122.3511 138° Southeast 306 352 16,800  Level Oakland Center
Sun 06:46:26 PM 37.3353 -122.2794 139° Southeast 313 360 19,300 2,390 Climbing Oakland Center
Sun 06:47:28 PM 37.2700 -122.2064 138° Southeast 315 362 21,700 2,195 Climbing Oakland Center
Sun 06:48:29 PM 37.2031 -122.1314 138° Southeast 322 371 23,800 1,902 Climbing Oakland Center
Sun 06:49:31 PM 37.1344 -122.0550 138° Southeast 330 380 25,600 1,610 Climbing Oakland Center
Sun 06:50:32 PM 37.0639 -121.9767 138° Southeast 342 394 27,100 1,610 Climbing Oakland Center
Sun 06:51:34 PM 36.9775 -121.8808 138° Southeast 347 399 28,900 1,694 Climbing Oakland Center
Sun 06:52:36 PM 36.9031 -121.8008 139° Southeast 354 407 30,600 1,024 Climbing Oakland Center
Sun 06:53:37 PM 36.8286 -121.7194 139° Southeast 358 412 31,000 195 Climbing Oakland Center
Sun 06:54:39 PM 36.7503 -121.6336 139° Southeast 377 434 31,000  Level Oakland Center
Sun 06:55:40 PM 36.6717 -121.5481 139° Southeast 377 434 31,000  Level Oakland Center
Sun 06:56:42 PM 36.5914 -121.4611 139° Southeast 382 440 31,000  Level Oakland Center
Sun 06:57:44 PM 36.5119 -121.3747 139° Southeast 380 437 31,000  Level Oakland Center
Sun 06:58:45 PM 36.4158 -121.2703 139° Southeast 382 440 31,000  Level Oakland Center
Sun 06:59:47 PM 36.3367 -121.1828 138° Southeast 383 441 31,000 -290 Level Oakland Center
Sun 07:00:49 PM 36.2561 -121.0956 139° Southeast 384 442 30,400 -780 Descending Oakland Center
Sun 07:01:50 PM 36.1758 -121.0097 139° Southeast 383 441 29,400 -732 Descending Oakland Center
Sun 07:02:52 PM 36.0961 -120.9244 139° Southeast 380 437 28,900 -829 Descending Oakland Center
Sun 07:03:53 PM 36.0172 -120.8394 139° Southeast 377 434 27,700 -1,171 Descending Oakland Center
Sun 07:04:55 PM 35.9356 -120.7519 139° Southeast 386 444 26,500 -1,161 Descending Oakland Center
Sun 07:05:57 PM 35.8558 -120.6650 139° Southeast 385 443 25,300 -732 Descending Oakland Center
Sun 07:06:58 PM 35.7617 -120.5667 140° Southeast 373 429 25,000 -146 Descending Oakland Center
Sun 07:08:00 PM 35.6842 -120.4847 139° Southeast 367 422 25,000  Level Oakland Center
Sun 07:09:01 PM 35.6156 -120.4117 139° Southeast 367 422 25,000  Level Los Angeles Center
Sun 07:10:03 PM 35.5378 -120.3297 139° Southeast 366 421 25,000  Level Los Angeles Center
Sun 07:11:17 PM 35.4431 -120.2303 139° Southeast 374 430 25,000  Level Los Angeles Center
Sun 07:12:20 PM 35.3475 -120.1297 139° Southeast 376 433 25,000  Level Los Angeles Center
Sun 07:13:23 PM 35.2686 -120.0475 140° Southeast 380 437 25,000  Level Los Angeles Center
Sun 07:14:24 PM 35.2044 -119.9814 140° Southeast 377 434 25,000  Level Los Angeles Center
Sun 07:15:26 PM 35.0919 -119.8644 140° Southeast 379 436 25,000  Level Los Angeles Center
Sun 07:16:29 PM 35.0131 -119.7797 139° Southeast 379 436 25,000  Level Los Angeles Center
Sun 07:17:31 PM 34.9344 -119.6956 139° Southeast 376 433 25,000  Level Los Angeles Center
Sun 07:18:33 PM 34.8564 -119.6125 139° Southeast 374 430 25,000  Level Los Angeles Center
Sun 07:19:35 PM 34.7769 -119.5297 139° Southeast 376 433 25,000  Level Los Angeles Center
Sun 07:20:37 PM 34.7000 -119.4472 139° Southeast 370 426 25,000  Level Los Angeles Center
Sun 07:21:39 PM 34.6142 -119.3608 140° Southeast 374 430 25,000  Level Los Angeles Center
Sun 07:22:53 PM 34.5353 -119.2800 140° Southeast 372 428 25,000  Level Los Angeles Center
Sun 07:23:56 PM 34.4247 -119.1639 139° Southeast 376 433 25,000 -192 Level Los Angeles Center
Sun 07:24:58 PM 34.3475 -119.0847 140° Southeast 368 423 24,600 -1,113 Descending Los Angeles Center
Sun 07:26:00 PM 34.2708 -119.0025 138° Southeast 369 425 22,700 -1,887 Descending Los Angeles Center
Sun 07:27:02 PM 34.1922 -118.9222 140° Southeast 369 425 20,700 -1,887 Descending Los Angeles Center
Sun 07:28:04 PM 34.1139 -118.8422 140° Southeast 367 422 18,800 -2,032 Descending Los Angeles Center
Sun 07:29:06 PM 34.0233 -118.7597 143° Southeast 360 414 16,500 -2,032 Descending Los Angeles Center
Sun 07:30:08 PM 33.9283 -118.7250 163° South 330 380 14,600 -1,210 Descending Los Angeles Center
Sun 07:31:10 PM 33.8428 -118.6936 163° South 321 369 14,000 -290 Descending Los Angeles Center
Sun 07:32:12 PM 33.7553 -118.6622 163° South 336 387 14,000 -194 Level Los Angeles Center
Sun 07:33:14 PM 33.6683 -118.6317 164° South 329 379 13,600 -823 Descending Los Angeles Center
Sun 07:34:16 PM 33.5772 -118.5894 159° South 296 341 12,300 -1,161 Descending Los Angeles Center
Sun 07:35:18 PM 33.5200 -118.5219 135° Southeast 305 351 11,200 -1,403 Descending Los Angeles Center
Sun 07:36:20 PM 33.4928 -118.4347 110° East 288 331 9,400 -1,728 Descending Los Angeles Center
Sun 07:37:23 PM 33.5025 -118.3453 83° East 293 337 7,600 -1,728 Descending Los Angeles Center
Sun 07:38:25 PM 33.5303 -118.2583 69° East 289 333 5,800 -1,258 Descending Los Angeles Center
Sun 07:39:27 PM 33.5608 -118.1536 71° East 283 326 5,000 -387 Descending Los Angeles Center
Sun 07:40:29 PM 33.6089 -118.0858 50° Northeast 279 321 5,000  Level Los Angeles Center
Sun 07:41:31 PM 33.6611 -118.0311 41° Northeast 259 298 5,000  Level Los Angeles Center
Sun 07:42:33 PM 33.7097 -117.9797 41° Northeast 243 280 5,000  Level Los Angeles Center
Sun 07:43:54 PM 33.7833 -117.9000 42° Northeast 243 280 5,000 -553 Level Southern California TRACON
Sun 07:44:54 PM 33.7667 -117.8333 107° East 185 213 3,700 -1,500 Descending Southern California TRACON
Sun 07:45:54 PM 33.7333 -117.8333 180° South 150 173 2,000 -1,632 Descending Southern California TRACON
Sun 07:46:48 PM 33.7000 -117.8500 203° Southwest 135 155 600 -1,556 Descending Southern California TRACON
Sun 07:49:00 PM 33.6757 -117.8682 196° South  Level Estimated

Login

Don't have an account? Register now (free) for customized features, flight alerts, and more!